Aviation Digital Data Service (ADDS)

Output produced by METARs form (1435 UTC 19 July 2019)
found at http://aviationweather.gov/metar/data/
 
METAR text: EHGG 191425Z AUTO 25004KT 190V320 9999 NSC 25/09 Q1013 NOSIG
Conditions at: EHGG (GRONINGEN/EELDE , NL) observed 1425 UTC 19 July 2019
Temperature: 25.0°C (77°F)
Dewpoint: 9.0°C (48°F) [RH = 36%]
Pressure (altimeter): 29.91 inches Hg (1013.0 mb)
Winds: from the WSW (250 degrees) at 5 MPH (4 knots; 2.1 m/s)
Visibility: 6 or more miles (10+ km)
Ceiling: at least 12,000 feet AGL
Clouds: sky clear below 12,000 feet AGL
Weather: no significant weather observed at this time

METAR text: EHGG 191355Z AUTO 25006KT 180V290 9999 NSC 24/09 Q1013 NOSIG
Conditions at: EHGG (GRONINGEN/EELDE , NL) observed 1355 UTC 19 July 2019
Temperature: 24.0°C (75°F)
Dewpoint: 9.0°C (48°F) [RH = 38%]
Pressure (altimeter): 29.91 inches Hg (1013.0 mb)
Winds: from the WSW (250 degrees) at 7 MPH (6 knots; 3.1 m/s)
Visibility: 6 or more miles (10+ km)
Ceiling: at least 12,000 feet AGL
Clouds: sky clear below 12,000 feet AGL
Weather: no significant weather observed at this time

Forecast for: EHGG (GRONINGEN/EELDE , NL)
Text: TAF EHGG 191114Z 1912/2018 24004KT CAVOK
Forecast period: 1200 UTC 19 July 2019 to 0800 UTC 20 July 2019
Forecast type: FROM: standard forecast or significant change
Winds: from the WSW (240 degrees) at 5 MPH (4 knots; 2.1 m/s)
Visibility: 6 or more miles 10+ km)
Ceiling: unknown
Clouds: missing
Weather: NSW  (no significant weather)
Text: BECMG 2008/2011 21010KT
Forecast period: 0800 to 1800 UTC 20 July 2019
Forecast type: BECOMING: Conditions expected to become as follows by 1100 UTC 20 July 2019
Winds: from the SSW (210 degrees) at 12 MPH (10 knots; 5.1 m/s)
Visibility: 6 or more miles 10+ km)
Ceiling: unknown
Clouds: missing
Weather: NSW  (no significant weather)
Text: TEMPO 2010/2018 24012G22KT 6000 SHRA SCT030CB
Forecast period: 1000 to 1800 UTC 20 July 2019
Forecast type: TEMPORARY: The following changes expected for less than half the time period
Winds: from the WSW (240 degrees) at 14 MPH (12 knots; 6.2 m/s)
gusting to 25 MPH (22 knots; 11.3 m/s)
Visibility: 4 miles (6 km)
Ceiling: at least 12,000 feet AGL
Clouds: scattered clouds at 3000 feet AGL
Weather: SHRA  (rain showers)
Text: PROB40
Forecast period: 1200 to 1600 UTC 20 July 2019
Forecast type: TEMPORARY: The following changes expected for less than half the time period
Winds: from the WSW (240 degrees) at 29 MPH (25 knots; 12.9 m/s)
gusting to 40 MPH (35 knots; 18.0 m/s)
Visibility: 1.24 miles (2.00 km)
Ceiling: 2000 feet AGL
Clouds: scattered clouds at 1000 feet AGL
broken clouds at 2000 feet AGL
Weather: TSRA TSGR  (rain associated with thunderstorm(s), hail associated with thunderstorm(s))